Westchester, IL

3:09 PM CST on February 01, 2015 (GMT -0600)
Mr. Hammes's Weather | Change Station
CLOSE
Current Station
Personal Weather Station
Location: Westchester, IL
Elevation: 641 ft
Nearby Weather Stations

Elev 641 ft 41.85 °N, 87.87 °W | Updated 26 seconds ago

Snow
Snow
25.2 °F
Feels Like 15 °F
N
10.4
Wind Variable Wind from East
Gusts 10.4 mph

Today
High -- | Low -- °F
--% Chance of Precip.
Yesterday
High -- | Low -- °F
Precip. -- in
7:04 AM 5:06 PM
Waxing Gibbous, 96% visible
Pressure 29.77 in
Visibility 0.8 miles
Clouds
Windchill 15 °F
Dew Point 24 °F
Humidity 96%
Rainfall 0.00 in
Snow Depth Not available.
UV Not available.
Pollen .10 out of 12
Air Quality Not available.
Flu Activity Not available.
METAR KMDW 012053Z 04018G28KT 3/4SM R31C/2600V3500FT -SN BR VV007 M03/M04 A2973 RMK AO2 PK WND 05028/2050 SLP080 SNINCR 1/9 P0003 60005 T10281044 56023

More Conditions Fewer Conditions

Pressure 29.77 in
Visibility 0.8 miles
Clouds
Windchill 15 °F
Dew Point 24 °F
Humidity 96%
Rainfall 0.00 in
Snow Depth Not available.
UV Not available.
Pollen .10 out of 12
Air Quality Not available.
Flu Activity Not available.
METAR KMDW 012053Z 04018G28KT 3/4SM R31C/2600V3500FT -SN BR VV007 M03/M04 A2973 RMK AO2 PK WND 05028/2050 SLP080 SNINCR 1/9 P0003 60005 T10281044 56023

More Conditions Fewer Conditions

10-Day Weather Forecast

Almanac

Astronomy

Feb. 01, 2015 Rise Set
Actual Time
Civil Twilight
Nautical Twilight
Astronomical Twilight
Moon
Length of Visible Light
Length of Day
Tomorrow will be .
, % of the Moon is Illuminated

Today's Extremes

State Highs State Lows

Community

WunderPhotos

Upload Photos

1,792,529 photos uploaded!

WunderBlogs® & News

Nearby

Air Quality

  Air Quality AQ Index Pollutant
Not available.

Snow Depth

Station Depth Elevation

Earthquake Activity

City Distance Mag. Time & Date
Minimum magnitude displayed is 2.5.

Coastal Water Temperatures

Place Temperature

Nearby Weather Stations